createdAt,value
2018-11-02T00:05:01.386Z,2
2018-11-02T00:10:03.895Z,0
2018-11-02T00:15:06.308Z,2
2018-11-02T00:20:08.843Z,1
2018-11-02T00:25:11.292Z,2
2018-11-02T00:30:13.693Z,1
2018-11-02T00:35:16.141Z,1
2018-11-02T00:40:18.591Z,2
2018-11-02T00:45:21.053Z,3
2018-11-02T00:50:23.534Z,2
2018-11-02T00:55:25.962Z,2
2018-11-02T01:00:28.456Z,1
2018-11-02T01:05:30.903Z,1
2018-11-02T01:10:33.337Z,1
2018-11-02T01:15:35.785Z,1
2018-11-02T01:20:38.241Z,1
2018-11-02T01:25:40.709Z,1
2018-11-02T01:30:43.164Z,1
2018-11-02T01:35:45.631Z,1
2018-11-02T01:40:48.080Z,1
2018-11-02T01:45:50.536Z,3
2018-11-02T01:50:52.992Z,1
2018-11-02T01:55:55.470Z,1
2018-11-02T02:00:57.900Z,1
2018-11-02T02:06:00.385Z,1
2018-11-02T02:11:02.835Z,1
2018-11-02T02:16:05.274Z,3
2018-11-02T02:21:07.751Z,1
2018-11-02T02:26:10.208Z,1
2018-11-02T02:31:12.668Z,2
2018-11-02T02:36:15.125Z,2
2018-11-02T02:41:17.585Z,1
2018-11-02T02:46:20.060Z,1
2018-11-02T02:51:22.574Z,1
2018-11-02T02:56:24.951Z,1
2018-11-02T03:01:27.437Z,1
2018-11-02T03:06:29.853Z,1
2018-11-02T03:11:32.346Z,1
2018-11-02T03:16:34.779Z,1
2018-11-02T03:21:37.223Z,2
2018-11-02T03:26:39.685Z,1
2018-11-02T03:31:42.268Z,1
2018-11-02T03:36:44.603Z,1
2018-11-02T03:41:47.099Z,1
2018-11-02T03:46:49.508Z,1
2018-11-02T03:51:51.977Z,2
2018-11-02T03:56:54.490Z,0
2018-11-02T04:01:56.870Z,1
2018-11-02T04:06:59.342Z,1
2018-11-02T04:12:01.846Z,1
2018-11-02T04:17:04.295Z,0
2018-11-02T04:22:06.709Z,1
2018-11-02T04:27:09.354Z,2
2018-11-02T04:32:11.669Z,1
2018-11-02T04:37:14.116Z,1
2018-11-02T04:42:16.619Z,1
2018-11-02T04:47:19.023Z,2
2018-11-02T04:52:21.493Z,1
2018-11-02T04:57:23.940Z,2
2018-11-02T05:02:26.481Z,2
2018-11-02T05:07:29.049Z,2
2018-11-02T05:12:31.352Z,3
2018-11-02T05:17:33.783Z,3
2018-11-02T05:22:36.345Z,2
2018-11-02T05:27:38.735Z,2
2018-11-02T05:32:41.286Z,3
2018-11-02T05:37:43.603Z,5
2018-11-02T05:42:46.264Z,5
2018-11-02T05:47:48.529Z,4
2018-11-02T05:52:51.037Z,4
2018-11-02T05:57:53.450Z,4
2018-11-02T06:02:55.888Z,2
2018-11-02T06:07:58.416Z,5
2018-11-02T06:13:00.847Z,2
2018-11-02T06:18:03.287Z,2
2018-11-02T06:23:05.724Z,2
2018-11-02T06:28:08.205Z,2
2018-11-02T06:33:10.657Z,2
2018-11-02T06:38:13.098Z,2
2018-11-02T06:43:15.576Z,2
2018-11-02T06:48:18.006Z,2
2018-11-02T06:53:20.474Z,3
2018-11-02T06:58:22.938Z,3
2018-11-02T07:03:25.406Z,2
2018-11-02T07:08:27.866Z,2
2018-11-02T07:13:30.354Z,2
2018-11-02T07:18:32.766Z,2
2018-11-02T07:23:35.217Z,2
2018-11-02T07:28:37.685Z,2
2018-11-02T07:33:40.170Z,3
2018-11-02T07:38:42.607Z,1
2018-11-02T07:43:45.142Z,1
2018-11-02T07:48:47.554Z,2
2018-11-02T07:53:49.982Z,2
2018-11-02T07:58:52.435Z,3
2018-11-02T08:03:54.876Z,3
2018-11-02T08:08:57.362Z,2
2018-11-02T08:13:59.824Z,2
2018-11-02T08:19:02.281Z,2
2018-11-02T08:24:04.721Z,5
2018-11-02T08:29:07.171Z,3
2018-11-02T08:34:09.678Z,2
2018-11-02T08:39:12.126Z,5
2018-11-02T08:44:14.561Z,7
2018-11-02T08:49:17.004Z,4
2018-11-02T08:54:19.463Z,2
2018-11-02T08:59:22.047Z,2
2018-11-02T09:04:24.448Z,1
2018-11-02T09:09:26.831Z,1
2018-11-02T09:14:29.280Z,1
2018-11-02T09:19:31.946Z,1
2018-11-02T09:24:34.201Z,1
2018-11-02T09:29:36.652Z,1
2018-11-02T09:34:39.132Z,2
2018-11-02T09:39:41.625Z,1
2018-11-02T09:44:44.171Z,1
2018-11-02T09:49:46.512Z,1
2018-11-02T09:54:48.941Z,1
2018-11-02T09:59:51.407Z,1
2018-11-02T10:04:53.863Z,1
2018-11-02T10:09:56.331Z,1
2018-11-02T10:14:58.780Z,1
2018-11-02T10:20:01.459Z,3
2018-11-02T10:25:03.729Z,2
2018-11-02T10:30:06.145Z,1
2018-11-02T10:35:08.742Z,1
2018-11-02T10:40:11.108Z,1
2018-11-02T10:45:13.664Z,1
2018-11-02T10:50:15.972Z,1
2018-11-02T10:55:18.427Z,2
2018-11-02T11:00:20.900Z,1
2018-11-02T11:05:23.452Z,1
2018-11-02T11:10:25.839Z,1
2018-11-02T11:15:28.265Z,1
2018-11-02T11:20:30.739Z,1
2018-11-02T11:25:33.179Z,1
2018-11-02T11:30:35.650Z,2
2018-11-02T11:35:38.092Z,1
2018-11-02T11:40:40.548Z,3
2018-11-02T11:45:43.027Z,1
2018-11-02T11:50:45.545Z,1
2018-11-02T11:55:47.926Z,1
2018-11-02T12:00:50.522Z,1
2018-11-02T12:05:52.850Z,1
2018-11-02T12:10:55.311Z,3
2018-11-02T12:15:57.876Z,1
2018-11-02T12:21:00.229Z,1
2018-11-02T12:26:02.680Z,1
2018-11-02T12:36:07.685Z,1
2018-11-02T12:41:10.054Z,1
2018-11-02T12:46:12.533Z,1
2018-11-02T12:51:14.958Z,2
2018-11-02T12:56:17.475Z,1
2018-11-02T13:01:19.880Z,1
2018-11-02T13:06:22.348Z,1
2018-11-02T13:11:24.820Z,1
2018-11-02T13:16:27.242Z,2
2018-11-02T13:21:29.777Z,3
2018-11-02T13:26:32.179Z,1
2018-11-02T13:31:34.657Z,2
2018-11-02T13:36:37.233Z,1
2018-11-02T13:41:39.575Z,2
2018-11-02T13:46:41.992Z,5
2018-11-02T13:51:44.448Z,3
2018-11-02T13:56:46.918Z,1
2018-11-02T14:01:49.436Z,3
2018-11-02T14:06:51.848Z,2
2018-11-02T14:11:54.286Z,1
2018-11-02T14:16:56.763Z,2
2018-11-02T14:21:59.191Z,2
2018-11-02T14:27:01.640Z,4
2018-11-02T14:32:04.101Z,4
2018-11-02T14:37:06.585Z,1
2018-11-02T14:42:09.011Z,2
2018-11-02T14:47:11.474Z,2
2018-11-02T14:52:13.974Z,3
2018-11-02T14:57:16.392Z,5
2018-11-02T15:02:18.853Z,3
2018-11-02T15:07:21.309Z,4
2018-11-02T15:12:23.765Z,5
2018-11-02T15:17:26.237Z,4
2018-11-02T15:22:28.699Z,6
2018-11-02T15:27:31.133Z,6
2018-11-02T15:32:33.604Z,3
2018-11-02T15:37:36.061Z,4
2018-11-02T15:42:38.510Z,5
2018-11-02T15:47:40.962Z,5
2018-11-02T15:52:43.429Z,5
2018-11-02T15:57:45.888Z,11
2018-11-02T16:02:48.340Z,5
2018-11-02T16:07:50.807Z,6
2018-11-02T16:12:53.375Z,5
2018-11-02T16:17:55.731Z,11
2018-11-02T16:22:58.169Z,14
2018-11-02T16:28:00.667Z,18
2018-11-02T16:33:03.096Z,24
2018-11-02T16:38:05.559Z,28
2018-11-02T16:43:08.034Z,19
2018-11-02T16:48:10.482Z,21
2018-11-02T16:53:12.927Z,22
2018-11-02T16:58:15.373Z,18
2018-11-02T17:03:17.870Z,16
2018-11-02T17:08:20.291Z,19
2018-11-02T17:13:22.763Z,16
2018-11-02T17:18:25.328Z,16
2018-11-02T17:23:27.664Z,16
2018-11-02T17:28:30.114Z,14
2018-11-02T17:33:32.645Z,18
2018-11-02T17:38:35.030Z,20
2018-11-02T17:43:37.547Z,15
2018-11-02T17:48:39.952Z,42
2018-11-02T17:53:42.420Z,23
2018-11-02T17:58:44.863Z,16
2018-11-02T18:03:47.338Z,14
2018-11-02T18:08:49.844Z,28
2018-11-02T18:13:52.241Z,35
2018-11-02T18:18:54.761Z,33
2018-11-02T18:23:57.150Z,58
2018-11-02T18:28:59.646Z,36
2018-11-02T18:34:02.083Z,63
2018-11-02T18:39:04.527Z,43
2018-11-02T18:44:06.993Z,28
2018-11-02T18:49:09.433Z,28
2018-11-02T18:54:11.889Z,24
2018-11-02T18:59:14.353Z,39
2018-11-02T19:04:16.808Z,40
2018-11-02T19:09:19.293Z,39
2018-11-02T19:14:21.729Z,49
2018-11-02T19:19:24.186Z,32
2018-11-02T19:24:26.663Z,18
2018-11-02T19:29:29.107Z,50
2018-11-02T19:34:31.765Z,38
2018-11-02T19:39:34.022Z,27
2018-11-02T19:44:36.677Z,23
2018-11-02T19:49:38.936Z,20
2018-11-02T19:54:41.416Z,15
2018-11-02T19:59:43.857Z,34
2018-11-02T20:04:46.313Z,46
2018-11-02T20:09:48.756Z,25
2018-11-02T20:14:51.222Z,18
2018-11-02T20:19:53.710Z,19
2018-11-02T20:24:56.130Z,31
2018-11-02T20:29:58.642Z,29
2018-11-02T20:35:01.102Z,28
2018-11-02T20:40:03.543Z,25
2018-11-02T20:45:05.987Z,17
2018-11-02T20:50:08.467Z,15
2018-11-02T20:55:10.883Z,20
2018-11-02T21:00:13.372Z,17
2018-11-02T21:05:15.852Z,16
2018-11-02T21:10:18.249Z,14
2018-11-02T21:15:20.707Z,17
2018-11-02T21:20:23.200Z,17
2018-11-02T21:25:25.670Z,15
2018-11-02T21:30:28.074Z,16
2018-11-02T21:35:30.545Z,17
2018-11-02T21:40:33.002Z,18
2018-11-02T21:45:35.470Z,17
2018-11-02T21:50:37.951Z,18
2018-11-02T21:55:40.369Z,20
2018-11-02T22:00:42.826Z,17
2018-11-02T22:05:45.357Z,17
2018-11-02T22:10:47.852Z,18
2018-11-02T22:15:50.210Z,17
2018-11-02T22:20:52.673Z,16
2018-11-02T22:25:55.133Z,17
2018-11-02T22:30:57.638Z,17
2018-11-02T22:36:00.304Z,15
2018-11-02T22:41:02.503Z,15
2018-11-02T22:46:04.964Z,13
2018-11-02T22:51:07.429Z,16
2018-11-02T22:56:09.934Z,17
2018-11-02T23:01:12.400Z,14
2018-11-02T23:06:14.931Z,14
2018-11-02T23:11:17.251Z,15
2018-11-02T23:16:19.709Z,16
2018-11-02T23:21:22.217Z,16
2018-11-02T23:26:24.623Z,16
2018-11-02T23:31:27.127Z,15
2018-11-02T23:36:29.553Z,15
2018-11-02T23:41:32.006Z,16
2018-11-02T23:46:34.463Z,21
2018-11-02T23:51:36.924Z,16
2018-11-02T23:56:39.407Z,16
